createdAt,value
2022-12-08T06:02:10.775Z,99175.94
2022-12-08T06:04:37.509Z,99173.31
2022-12-08T06:07:04.737Z,99180.25
2022-12-08T06:09:31.374Z,99169.78
2022-12-08T06:11:58.587Z,99170.81
2022-12-08T06:14:25.176Z,99164.50
2022-12-08T06:16:52.568Z,99157.56
2022-12-08T06:19:19.627Z,99156.81
2022-12-08T06:21:46.782Z,99165.56
2022-12-08T06:24:13.426Z,99159.38
2022-12-08T06:26:41.737Z,99167.09
2022-12-08T06:29:08.864Z,99166.16
2022-12-08T06:31:36.193Z,99160.03
2022-12-08T06:34:02.883Z,99155.69
2022-12-08T06:36:30.129Z,99163.56
2022-12-08T06:38:57.066Z,99165.34
2022-12-08T06:41:24.497Z,99165.28
2022-12-08T06:43:51.139Z,99165.22
2022-12-08T06:46:20.037Z,99160.75
2022-12-08T06:48:47.443Z,99156.41
2022-12-08T06:51:19.884Z,99159.09
2022-12-08T06:53:47.030Z,99150.44
2022-12-08T06:56:16.143Z,99158.31
2022-12-08T06:58:46.104Z,99155.66
2022-12-08T07:01:17.790Z,99162.66
2022-12-08T07:03:44.589Z,99154.75
2022-12-08T07:06:24.998Z,99161.69
2022-12-08T07:08:52.336Z,99166.03
2022-12-08T07:11:22.076Z,99167.88
2022-12-08T07:13:49.410Z,99163.41
2022-12-08T07:16:16.916Z,99168.75
2022-12-08T07:18:44.019Z,99159.97
2022-12-08T07:21:13.525Z,99156.44
2022-12-08T07:23:40.147Z,99160.75
2022-12-08T07:26:10.554Z,99159.81
2022-12-08T07:28:39.013Z,99167.66
2022-12-08T07:31:06.979Z,99172.06
2022-12-08T07:33:34.536Z,99173.81
2022-12-08T07:36:04.299Z,99172.13
2022-12-08T07:38:31.427Z,99172.97
2022-12-08T07:40:59.330Z,99175.59
2022-12-08T07:43:26.286Z,99172.88
2022-12-08T07:45:53.632Z,99166.72
2022-12-08T07:48:20.502Z,99168.53
2022-12-08T07:50:47.874Z,99168.53
2022-12-08T07:53:14.707Z,99167.63
2022-12-08T07:55:43.352Z,99165.00
2022-12-08T07:58:10.919Z,99171.09
2022-12-08T08:00:38.513Z,99171.09
2022-12-08T08:03:06.060Z,99166.88
2022-12-08T08:05:33.423Z,99172.88
2022-12-08T08:08:00.078Z,99172.78
2022-12-08T08:10:27.478Z,99171.88
2022-12-08T08:12:54.275Z,99161.34
2022-12-08T08:15:21.573Z,99173.56
2022-12-08T08:17:51.997Z,99171.81
2022-12-08T08:20:19.986Z,99177.13
2022-12-08T08:22:50.296Z,99176.25
2022-12-08T08:25:19.961Z,99177.06
2022-12-08T08:27:46.814Z,99181.47
2022-12-08T08:30:19.922Z,99173.72
2022-12-08T08:32:47.807Z,99174.66
2022-12-08T08:35:15.245Z,99180.69
2022-12-08T08:37:45.726Z,99182.31
2022-12-08T08:40:15.798Z,99187.72
2022-12-08T08:42:42.332Z,99185.88
2022-12-08T08:45:09.849Z,99189.44
2022-12-08T08:47:37.577Z,99183.41
2022-12-08T08:50:05.552Z,99185.97
2022-12-08T08:52:32.492Z,99186.78
2022-12-08T08:54:59.699Z,99185.84
2022-12-08T08:57:26.426Z,99187.47
2022-12-08T08:59:54.281Z,99194.44
2022-12-08T09:02:21.271Z,99183.97
2022-12-08T09:04:48.934Z,99193.59
2022-12-08T09:07:16.001Z,99189.28
2022-12-08T09:09:43.839Z,99185.84
2022-12-08T09:12:10.783Z,99191.16
2022-12-08T09:14:37.986Z,99194.53
2022-12-08T09:17:05.105Z,99198.16
2022-12-08T09:19:32.830Z,99193.72
2022-12-08T09:21:59.376Z,99193.69
2022-12-08T09:24:26.993Z,99193.59
2022-12-08T09:26:53.522Z,99200.56
2022-12-08T09:29:20.671Z,99199.00
2022-12-08T09:31:47.344Z,99198.84
2022-12-08T09:34:14.871Z,99203.09
2022-12-08T09:36:41.460Z,99198.72
2022-12-08T09:39:08.873Z,99196.22
2022-12-08T09:41:48.632Z,99196.16
2022-12-08T09:44:34.044Z,99201.53
2022-12-08T09:47:03.475Z,99204.03
2022-12-08T09:49:50.810Z,99201.22
2022-12-08T09:52:33.627Z,99201.13
2022-12-08T09:55:09.788Z,99201.97
2022-12-08T09:57:36.854Z,99205.63
2022-12-08T10:00:07.098Z,99204.78
2022-12-08T10:02:34.486Z,99202.91
2022-12-08T10:05:01.390Z,99201.94
2022-12-08T10:08:04.308Z,99195.75
2022-12-08T10:10:58.190Z,99197.53
2022-12-08T10:13:58.071Z,99197.56
2022-12-08T10:16:36.055Z,99194.06
2022-12-08T10:19:17.385Z,99191.56
2022-12-08T10:21:45.302Z,99190.69
2022-12-08T10:24:22.271Z,99187.13
2022-12-08T10:26:49.666Z,99189.72
2022-12-08T10:29:16.331Z,99197.56
2022-12-08T10:31:43.881Z,99191.28
2022-12-08T10:34:18.955Z,99183.38
2022-12-08T10:36:54.606Z,99179.69
2022-12-08T10:39:45.640Z,99186.59
2022-12-08T10:42:15.785Z,99183.97
2022-12-08T10:45:08.515Z,99184.78
2022-12-08T10:47:44.632Z,99183.03
2022-12-08T10:50:23.988Z,99175.94
2022-12-08T10:53:00.080Z,99174.91
2022-12-08T10:55:27.349Z,99173.16
2022-12-08T10:57:54.532Z,99171.34
2022-12-08T11:00:24.775Z,99170.34
2022-12-08T11:02:56.862Z,99172.00
2022-12-08T11:05:28.113Z,99170.25
2022-12-08T11:07:56.228Z,99171.16
2022-12-08T11:10:32.280Z,99177.28
2022-12-08T11:13:06.298Z,99175.53
2022-12-08T11:15:39.934Z,99172.88
2022-12-08T11:18:10.740Z,99176.44
2022-12-08T11:20:41.887Z,99164.06
2022-12-08T11:23:24.348Z,99163.84
2022-12-08T11:25:52.305Z,99171.75
2022-12-08T11:28:24.581Z,99166.50
2022-12-08T11:31:32.489Z,99164.78
2022-12-08T11:33:59.194Z,99164.69
2022-12-08T11:36:29.665Z,99155.72
2022-12-08T11:38:59.684Z,99161.84
2022-12-08T11:41:37.664Z,99154.69
2022-12-08T11:44:28.662Z,99159.09
2022-12-08T11:47:09.035Z,99156.47
2022-12-08T11:49:39.406Z,99154.56
2022-12-08T11:52:18.621Z,99152.59
2022-12-08T11:54:52.385Z,99157.81
2022-12-08T11:57:23.445Z,99149.09
2022-12-08T11:59:54.306Z,99151.78
2022-12-08T12:02:27.686Z,99136.78
2022-12-08T12:05:09.090Z,99143.03
2022-12-08T12:08:06.830Z,99148.00
2022-12-08T12:10:54.911Z,99153.25
2022-12-08T12:13:57.412Z,99140.25
2022-12-08T12:16:53.643Z,99150.91
2022-12-08T12:19:22.514Z,99146.75
2022-12-08T12:21:56.728Z,99145.22
2022-12-08T12:24:36.072Z,99146.75
2022-12-08T12:27:16.446Z,99142.38
2022-12-08T12:29:56.537Z,99145.19
2022-12-08T12:32:25.004Z,99141.56
2022-12-08T12:35:00.258Z,99147.00
2022-12-08T12:37:40.002Z,99150.38
2022-12-08T12:40:17.764Z,99141.41
2022-12-08T12:43:14.493Z,99140.47
2022-12-08T12:45:43.818Z,99147.47
2022-12-08T12:48:29.270Z,99142.19
2022-12-08T12:50:56.726Z,99148.22
2022-12-08T12:53:24.522Z,99151.09
2022-12-08T12:55:55.071Z,99144.84
2022-12-08T12:58:28.218Z,99143.03
2022-12-08T13:01:10.427Z,99148.19
2022-12-08T13:03:45.732Z,99150.91
2022-12-08T13:06:15.028Z,99152.75
2022-12-08T13:08:53.514Z,99147.47
2022-12-08T13:11:22.123Z,99153.66
2022-12-08T13:13:57.624Z,99153.75
2022-12-08T13:16:28.141Z,99146.78
2022-12-08T13:19:02.204Z,99151.19
2022-12-08T13:21:37.451Z,99149.53
2022-12-08T13:24:26.723Z,99149.53
2022-12-08T13:27:05.955Z,99146.16
2022-12-08T13:29:33.589Z,99141.66
2022-12-08T13:32:03.142Z,99152.59
2022-12-08T13:34:45.457Z,99149.16
2022-12-08T13:37:12.679Z,99142.06
2022-12-08T13:39:39.175Z,99144.53
2022-12-08T13:42:17.345Z,99144.34
2022-12-08T13:45:24.125Z,99141.72
2022-12-08T13:47:59.581Z,99154.25
2022-12-08T13:57:02.663Z,99147.91
2022-12-08T13:59:30.622Z,99142.59
2022-12-08T14:02:03.998Z,99148.97
2022-12-08T14:04:47.849Z,99156.75
2022-12-08T14:07:18.667Z,99152.34
2022-12-08T14:09:46.223Z,99143.72
2022-12-08T14:12:22.683Z,99153.28
2022-12-08T14:15:03.273Z,99148.22
2022-12-08T14:17:31.141Z,99152.72
2022-12-08T14:19:57.714Z,99150.09
2022-12-08T14:22:24.940Z,99156.22
2022-12-08T14:24:53.626Z,99156.31
2022-12-08T14:27:26.140Z,99159.13
2022-12-08T14:29:58.234Z,99155.69
2022-12-08T14:32:42.048Z,99154.91
2022-12-08T14:35:08.616Z,99152.28
2022-12-08T14:37:42.457Z,99148.75
2022-12-08T14:40:37.942Z,99152.25
2022-12-08T14:43:08.116Z,99157.56
2022-12-08T14:45:46.715Z,99154.91
2022-12-08T14:48:33.818Z,99160.28
2022-12-08T14:51:03.396Z,99162.16
2022-12-08T14:53:39.883Z,99161.31
2022-12-08T14:56:23.481Z,99162.16
2022-12-08T14:59:03.501Z,99166.53
2022-12-08T15:01:30.472Z,99169.19
2022-12-08T15:04:12.928Z,99169.19
2022-12-08T15:07:15.065Z,99163.09
2022-12-08T15:09:48.939Z,99171.06
2022-12-08T15:12:15.558Z,99172.00
2022-12-08T15:14:54.595Z,99170.31
2022-12-08T15:17:32.191Z,99166.00
2022-12-08T15:20:00.152Z,99169.63
2022-12-08T15:22:28.168Z,99170.56
2022-12-08T15:24:56.004Z,99167.13
2022-12-08T15:27:25.496Z,99169.84
2022-12-08T15:29:52.574Z,99169.00
2022-12-08T15:32:24.301Z,99169.16
2022-12-08T15:34:50.943Z,99157.81
2022-12-08T15:37:25.518Z,99165.75
2022-12-08T15:39:52.756Z,99169.44
2022-12-08T15:42:19.674Z,99176.47
2022-12-08T15:44:47.349Z,99168.59
2022-12-08T15:47:22.268Z,99174.81
2022-12-08T15:49:50.853Z,99173.91
2022-12-08T15:52:20.620Z,99173.84
2022-12-08T15:54:49.217Z,99173.13
2022-12-08T16:00:51.940Z,99170.50
2022-12-08T16:09:40.540Z,99180.25
2022-12-08T16:13:13.878Z,99174.06
2022-12-08T16:18:16.018Z,99179.47
2022-12-08T16:21:07.509Z,99174.34
2022-12-08T16:23:42.829Z,99175.47
2022-12-08T16:26:49.086Z,99176.34
2022-12-08T16:29:00.865Z,99171.00
2022-12-08T16:31:27.529Z,99176.19
2022-12-08T16:33:54.819Z,99178.03
2022-12-08T16:36:21.404Z,99185.00
2022-12-08T16:38:48.574Z,99181.59
2022-12-08T16:41:34.595Z,99186.84
2022-12-08T16:44:06.373Z,99188.53
2022-12-08T16:46:33.167Z,99193.72
2022-12-08T16:49:00.364Z,99186.63
2022-12-08T16:51:27.623Z,99187.63
2022-12-08T16:53:57.166Z,99190.31
2022-12-08T16:56:30.423Z,99185.84
2022-12-08T16:59:00.089Z,99186.78
2022-12-08T17:01:26.738Z,99190.09
2022-12-08T17:04:29.223Z,99193.63
2022-12-08T17:06:40.663Z,99187.53
2022-12-08T17:09:07.646Z,99187.47
2022-12-08T17:11:40.757Z,99189.22
2022-12-08T17:14:09.658Z,99189.91
2022-12-08T17:16:36.228Z,99189.06
2022-12-08T17:19:03.246Z,99195.16
2022-12-08T17:21:29.777Z,99195.28
2022-12-08T17:23:56.766Z,99198.69
2022-12-08T17:26:23.331Z,99202.16
2022-12-08T17:29:05.541Z,99200.38
2022-12-08T17:31:32.999Z,99203.91
2022-12-08T17:34:05.976Z,99193.31
2022-12-08T17:36:32.652Z,99195.84
2022-12-08T17:39:01.268Z,99195.78
2022-12-08T17:41:29.050Z,99193.16
2022-12-08T17:43:56.796Z,99195.84
2022-12-08T17:46:24.145Z,99202.03
2022-12-08T17:48:51.718Z,99196.69
2022-12-08T17:51:18.484Z,99198.50
2022-12-08T17:53:46.246Z,99200.28
2022-12-08T17:56:19.053Z,99203.81
2022-12-08T17:58:51.354Z,99209.09
2022-12-08T18:01:22.576Z,99202.03
2022-12-08T18:03:50.028Z,99197.72
2022-12-08T18:06:17.624Z,99195.97
2022-12-08T18:08:45.573Z,99207.31
2022-12-08T18:11:19.658Z,99196.88
2022-12-08T18:13:48.362Z,99196.81
2022-12-08T18:16:15.927Z,99201.13
2022-12-08T18:18:43.406Z,99200.22
2022-12-08T18:21:10.651Z,99198.34
2022-12-08T18:23:39.050Z,99196.56
2022-12-08T18:26:07.652Z,99193.91
2022-12-08T18:28:36.254Z,99194.75
2022-12-08T18:31:07.569Z,99190.38
2022-12-08T18:33:34.818Z,99188.75
2022-12-08T18:36:01.401Z,99192.31
2022-12-08T18:38:28.590Z,99188.66
2022-12-08T18:40:55.123Z,99196.56
2022-12-08T18:43:22.254Z,99191.28
2022-12-08T18:45:48.813Z,99193.84
2022-12-08T18:48:15.992Z,99193.94
2022-12-08T18:50:44.641Z,99196.56
2022-12-08T18:53:11.815Z,99192.25
2022-12-08T18:55:38.337Z,99191.47
2022-12-08T18:58:05.526Z,99192.38
2022-12-08T19:00:32.043Z,99193.22
2022-12-08T19:02:59.224Z,99194.09
2022-12-08T19:05:25.807Z,99196.78
2022-12-08T19:07:52.821Z,99183.56
2022-12-08T19:10:20.068Z,99194.88
2022-12-08T19:12:50.278Z,99196.78
2022-12-08T19:15:17.529Z,99200.13
2022-12-08T19:17:44.140Z,99199.25
2022-12-08T19:20:12.614Z,99193.00
2022-12-08T19:22:39.170Z,99197.34
2022-12-08T19:25:06.937Z,99198.25
2022-12-08T19:27:34.125Z,99206.22
2022-12-08T19:30:01.293Z,99203.69
2022-12-08T19:32:29.822Z,99202.75
2022-12-08T19:34:57.006Z,99207.28
2022-12-08T19:37:23.581Z,99198.56
2022-12-08T19:40:09.643Z,99202.03
2022-12-08T19:42:54.844Z,99202.75
2022-12-08T19:45:22.029Z,99201.97
2022-12-08T19:47:49.352Z,99203.81
2022-12-08T19:50:34.920Z,99205.47
2022-12-08T19:53:04.230Z,99204.66
2022-12-08T19:55:30.808Z,99203.81
2022-12-08T19:57:58.284Z,99202.06
2022-12-08T20:00:25.963Z,99204.81
2022-12-08T20:02:52.609Z,99198.81
2022-12-08T20:05:19.939Z,99204.28
2022-12-08T20:07:47.009Z,99207.88
2022-12-08T20:10:35.558Z,99216.59
2022-12-08T20:13:21.923Z,99214.72
2022-12-08T20:15:48.641Z,99211.13
2022-12-08T20:18:16.056Z,99217.19
2022-12-08T20:20:44.355Z,99218.13
2022-12-08T20:23:12.012Z,99225.31
2022-12-08T20:25:39.881Z,99223.63
2022-12-08T20:28:07.266Z,99229.81
2022-12-08T20:30:34.292Z,99226.28
2022-12-08T20:33:01.444Z,99228.13
2022-12-08T20:35:28.039Z,99230.66
2022-12-08T20:37:54.958Z,99223.63
2022-12-08T20:40:21.574Z,99226.34
2022-12-08T20:42:49.354Z,99226.34
2022-12-08T20:45:16.033Z,99222.78
2022-12-08T20:47:42.907Z,99225.34
2022-12-08T20:50:10.896Z,99222.63
2022-12-08T20:52:37.916Z,99222.50
2022-12-08T20:55:06.942Z,99230.28
2022-12-08T20:57:33.837Z,99233.75
2022-12-08T21:00:01.049Z,99238.16
2022-12-08T21:02:27.981Z,99237.22
2022-12-08T21:04:55.363Z,99239.00
2022-12-08T21:07:22.198Z,99240.78
2022-12-08T21:09:49.626Z,99240.72
2022-12-08T21:12:16.226Z,99236.44
2022-12-08T21:14:43.897Z,99231.25
2022-12-08T21:17:10.725Z,99237.47
2022-12-08T21:19:38.289Z,99240.94
2022-12-08T21:22:05.018Z,99240.94
2022-12-08T21:24:34.251Z,99233.91
2022-12-08T21:27:01.530Z,99239.16
2022-12-08T21:29:28.935Z,99233.00
